Orbital elements of FENGYUN 1C DEB
| Launched | 9 May 1999 |
| Flight ended | – |
| Launch site | Taiyuan Space Center, PRC |
| Owner | People's Republic of China |
| NORAD ID | 31972 |
| Date fetched |
Epoch osculation |
Inc. [°] |
Ecc. | RA asc node [hr] |
Arg Peri. [°] |
Mean anom [°] |
Mean motion [rev/day] |
Abs. mag |
| Date fetched |
Epoch osculation |
Inc. [°] |
Ecc. | RA asc node [hr] |
Arg Peri. [°] |
Mean anom [°] |
Mean motion [rev/day] |
Abs. mag |
| 2026 May 06 17:57 | 2026 May 05 08:45:06 | 99.1871 | 0.00763 | 11.6427 | 352.6615 | 69.7035 | 14.07597 | – |
| 2026 May 05 17:57 | 2026 May 05 08:45:06 | 99.1871 | 0.00763 | 11.6427 | 352.6615 | 69.7035 | 14.07597 | – |
| 2026 May 04 17:57 | 2026 Apr 30 02:21:01 | 99.1876 | 0.00766 | 11.2855 | 7.3729 | 69.7035 | 14.07597 | – |
| 2026 May 03 17:57 | 2026 Apr 30 02:21:01 | 99.1876 | 0.00766 | 11.2855 | 7.3729 | 69.7035 | 14.07597 | – |
| 2026 May 02 17:57 | 2026 Apr 30 02:21:01 | 99.1876 | 0.00766 | 11.2855 | 7.3729 | 69.7035 | 14.07597 | – |
| 2026 May 01 17:56 | 2026 Apr 30 02:21:01 | 99.1876 | 0.00766 | 11.2855 | 7.3729 | 69.7035 | 14.07597 | – |
| 2026 Apr 30 17:56 | 2026 Apr 30 02:21:01 | 99.1876 | 0.00766 | 11.2855 | 7.3729 | 69.7035 | 14.07597 | – |
| 2026 Apr 29 17:57 | 2026 Apr 22 08:32:24 | 99.1890 | 0.00769 | 10.7605 | 28.8422 | 69.7035 | 14.07597 | – |
| 2026 Apr 28 17:56 | 2026 Apr 22 08:32:24 | 99.1890 | 0.00769 | 10.7605 | 28.8422 | 69.7035 | 14.07597 | – |
| 2026 Apr 27 17:58 | 2026 Apr 22 08:32:24 | 99.1890 | 0.00769 | 10.7605 | 28.8422 | 69.7035 | 14.07597 | – |
| 2026 Apr 26 17:58 | 2026 Apr 22 08:32:24 | 99.1890 | 0.00769 | 10.7605 | 28.8422 | 69.7035 | 14.07597 | – |
| 2026 Apr 25 17:58 | 2026 Apr 22 08:32:24 | 99.1890 | 0.00769 | 10.7605 | 28.8422 | 69.7035 | 14.07597 | – |
| 2026 Apr 24 17:59 | 2026 Apr 22 08:32:24 | 99.1890 | 0.00769 | 10.7605 | 28.8422 | 69.7035 | 14.07597 | – |
| 2026 Apr 23 17:57 | 2026 Apr 19 08:54:38 | 99.1894 | 0.00771 | 10.5581 | 37.0903 | 69.7035 | 14.07597 | – |
| 2026 Apr 22 17:57 | 2026 Apr 19 08:54:38 | 99.1894 | 0.00771 | 10.5581 | 37.0903 | 69.7035 | 14.07597 | – |
| 2026 Apr 21 17:57 | 2026 Apr 19 08:54:38 | 99.1894 | 0.00771 | 10.5581 | 37.0903 | 69.7035 | 14.07597 | – |
| 2026 Apr 20 17:57 | 2026 Apr 19 08:54:38 | 99.1894 | 0.00771 | 10.5581 | 37.0903 | 69.7035 | 14.07597 | – |
| 2026 Apr 19 17:58 | 2026 Apr 19 08:54:38 | 99.1894 | 0.00771 | 10.5581 | 37.0903 | 69.7035 | 14.07597 | – |
| 2026 Apr 18 17:56 | 2026 Apr 12 22:12:07 | 99.1907 | 0.00773 | 10.1209 | 54.8817 | 69.7035 | 14.07597 | – |
| 2026 Apr 16 17:57 | 2026 Apr 12 22:12:07 | 99.1907 | 0.00773 | 10.1209 | 54.8817 | 69.7035 | 14.07597 | – |
| 2026 Apr 14 17:57 | 2026 Apr 12 22:12:07 | 99.1907 | 0.00773 | 10.1209 | 54.8817 | 69.7035 | 14.07597 | – |
| 2026 Apr 13 17:57 | 2026 Apr 12 22:12:07 | 99.1907 | 0.00773 | 10.1209 | 54.8817 | 69.7035 | 14.07597 | – |
| 2026 Apr 12 17:57 | 2026 Apr 07 21:05:00 | 99.1912 | 0.00775 | 9.7786 | 68.7938 | 69.7035 | 14.07597 | – |
| 2026 Apr 11 17:57 | 2026 Apr 07 21:05:00 | 99.1912 | 0.00775 | 9.7786 | 68.7938 | 69.7035 | 14.07597 | – |
| 2026 Apr 10 17:58 | 2026 Apr 07 21:05:00 | 99.1912 | 0.00775 | 9.7786 | 68.7938 | 69.7035 | 14.07597 | – |
| 2026 Apr 09 18:01 | 2026 Apr 07 21:05:00 | 99.1912 | 0.00775 | 9.7786 | 68.7938 | 69.7035 | 14.07597 | – |